Carnival Glory — 3FPS9 — position and weather

sailwx.info

Track history (hours):
 
Tides and Currents Weather Stations Pressure Air Temp Water Temp Dewpoint Dewpoint Depression Visibility Wind Speed Wind Dir Waves Ship Positions

Carnival Glory

Operator: Carnival Cruise Lines

Last reported at 2018-May-22 17:00 UTC. Time now 2018-May-24 02:34 UTC.
Position N 17°24' W 088°06'.

Type: Passenger vessel. MMSI: 357659000.

Wind from 360 at 15 knots

Barometer 1008.9 mb
Air temperature 30.0 ° C
Visibility: greater than 10.8 NM
Dewpoint 25.8 ° C
Water temperature 28.0 ° C

Date/timePositionNaut miles runAvg speedWind from/ knotsBaromVisibWave heightAir tempDewpointWater temp
2018-May-22 17:00N 17°24' W 088°06'163 9.6 360 / 151008.910.8 30.025.828.0
2018-May-22 00:00N 19°54' W 087°00'2220.1 090 / 301009.410.8 27.022.628.0
2018-May-21 22:54N 20°15' W 087°06'717.6
2018-May-21 22:30N 20°22' W 087°05'815.5
2018-May-21 22:00N 20°29' W 087°01'2 4.8
2018-May-21 21:30N 20°29' W 086°59'0 0.0
2018-May-21 20:57N 20°29' W 086°59'0 0.0
2018-May-21 20:30N 20°29' W 086°59'0 0.0
2018-May-21 20:00N 20°29' W 086°59'0 0.0
2018-May-21 19:30N 20°29' W 086°59'0 0.0
2018-May-21 18:57N 20°29' W 086°59'0 0.0
2018-May-21 18:30N 20°29' W 086°59'0 0.0
2018-May-21 18:00N 20°29' W 086°59'0 0.0
2018-May-21 17:30N 20°29' W 086°59'0 0.0
2018-May-21 17:00N 20°29' W 086°59'0 0.0
2018-May-21 16:30N 20°29' W 086°59'0 0.0
2018-May-21 16:00N 20°29' W 086°59'0 0.0
2018-May-21 15:30N 20°29' W 086°59'0 0.0
2018-May-21 15:00N 20°29' W 086°59'0 0.0
2018-May-21 14:30N 20°29' W 086°59'0 0.0
2018-May-21 14:00N 20°29' W 086°59'0 0.0
2018-May-21 13:30N 20°29' W 086°59'0 0.0
2018-May-21 13:00N 20°29' W 086°59'0 0.0
2018-May-21 12:30N 20°29' W 086°59'0 0.0
2018-May-21 12:00N 20°29' W 086°59'0 0.0
2018-May-21 11:31N 20°29' W 086°59'0 0.8
2018-May-21 11:01N 20°29' W 086°59'3 6.4
2018-May-21 10:31N 20°32' W 086°58'610.7
2018-May-21 09:59N 20°37' W 086°55'10713.3
2018-May-21 02:00N 21°48' W 085°30'7017.5 100 / 251011.910.8 26.021.525.0
2018-May-20 22:00N 22°42' W 084°42'13615.1 080 / 101012.710.8 27.024.128.0
2018-May-20 13:00N 23°30' W 082°24'2424.4 120 / 201014.927.0 28.025.227.0
2018-May-20 12:00N 23°48' W 082°06'14813.1 120 / 151015.110.8 27.024.128.0
2018-May-20 00:44N 25°09' W 079°50'313.6
2018-May-20 00:31N 25°12' W 079°48'713.2
2018-May-20 00:01N 25°18' W 079°46'3196.2
2018-May-20 00:00N 25°18' W 079°42'714.9 140 / 251016.110.8 27.024.128.0
2018-May-19 23:31N 25°24' W 079°46'612.7
2018-May-19 23:01N 25°31' W 079°46'612.6
2018-May-19 22:31N 25°37' W 079°47'713.5
2018-May-19 22:01N 25°41' W 079°53'713.9
2018-May-19 21:30N 25°45' W 079°59'510.6
2018-May-19 21:01N 25°46' W 080°05'5 9.6
2018-May-19 20:30N 25°47' W 080°10'0 0.3
2018-May-19 19:59N 25°47' W 080°10'0 0.0
2018-May-19 19:29N 25°47' W 080°10'0 0.0
2018-May-19 18:59N 25°47' W 080°10'0 0.0
2018-May-19 18:29N 25°47' W 080°10'0 0.0
2018-May-19 17:56N 25°47' W 080°10'0 0.0
2018-May-19 17:29N 25°47' W 080°10'0 0.0
2018-May-19 16:59N 25°47' W 080°10'0 0.0
2018-May-19 16:29N 25°47' W 080°10'0 0.0
2018-May-19 15:59N 25°47' W 080°10'0 0.0
2018-May-19 15:29N 25°47' W 080°10'0 0.0
2018-May-19 14:59N 25°47' W 080°10'0 0.0
2018-May-19 14:29N 25°47' W 080°10'0 0.0
2018-May-19 13:59N 25°47' W 080°10'0 0.0
2018-May-19 13:29N 25°47' W 080°10'0 0.0
2018-May-19 12:56N 25°47' W 080°10'0 0.0
2018-May-19 12:29N 25°47' W 080°10'0 0.0
2018-May-19 11:59N 25°47' W 080°10'0 0.0
2018-May-19 11:29N 25°47' W 080°10'0 0.0
2018-May-19 10:53N 25°47' W 080°10'0 0.0
2018-May-19 10:29N 25°47' W 080°10'0 0.0
2018-May-19 09:59N 25°47' W 080°10'0 0.3
2018-May-19 09:30N 25°47' W 080°10'1 1.4
2018-May-19 09:00N 25°46' W 080°10'5 9.6
2018-May-19 08:30N 25°46' W 080°04'5 9.7
2018-May-19 08:01N 25°46' W 079°59'611.6
2018-May-19 07:30N 25°43' W 079°54'1122.0
2018-May-19 07:00N 25°33' W 079°48'1122.6
2018-May-19 06:30N 25°23' W 079°43'15921.1
2018-May-18 23:00N 22°54' W 078°42'15419.3 170 / 151013.910.8 26.021.528.0
2018-May-18 15:00N 21°36' W 076°18'10921.8 120 / 201014.9 5.4 28.023.725.0
2018-May-18 10:00N 20°54' W 074°30'30312.6 110 / 251013.210.8 26.019.928.0
2018-May-17 10:00N 19°36' W 069°18'114 2.4 120 / 231015.910.8 26.021.528.0
2018-May-15 11:00N 19°24' W 067°18'22118.4 090 / 251016.710.8 25.022.028.0
2018-May-14 23:00N 21°24' W 070°36'180 8.6 090 / 281015.510.8 26.019.928.0
2018-May-14 02:00N 23°18' W 073°06'24417.4 100 / 251016.910.8 25.020.527.0
2018-May-13 12:00N 25°42' W 076°42'14416.1 090 / 201016.910.8 27.024.126.0
2018-May-13 03:03N 26°14' W 079°19'116.8
2018-May-13 03:00N 26°13' W 079°20'816.9
2018-May-13 02:30N 26°10' W 079°28'917.6
2018-May-13 02:00N 26°04' W 079°36'917.5
2018-May-13 01:30N 25°59' W 079°44'917.6
2018-May-13 01:00N 25°55' W 079°52'917.4
2018-May-13 00:30N 25°50' W 080°00'4 7.0
2018-May-13 00:00N 25°48' W 080°03'510.5
2018-May-12 23:30N 25°51' W 079°58'816.7
2018-May-12 23:00N 25°56' W 079°51'816.2
2018-May-12 22:30N 26°02' W 079°45'2 4.0
2018-May-12 22:00N 26°00' W 079°45'918.3
2018-May-12 21:31N 25°54' W 079°53'918.4
2018-May-12 21:01N 25°48' W 080°00'612.2
2018-May-12 20:30N 25°45' W 080°07'3 6.0
2018-May-12 19:58N 25°47' W 080°10'0 0.0
2018-May-12 19:28N 25°47' W 080°10'0 0.0
2018-May-12 18:58N 25°47' W 080°10'0 0.0
2018-May-12 18:28N 25°47' W 080°10'0 0.0
2018-May-12 17:52N 25°47' W 080°10'0 0.0
2018-May-12 17:28N 25°47' W 080°10'  
Track history (hours):
 
Tides and Currents Weather Stations Pressure Air Temp Water Temp Dewpoint Dewpoint Depression Visibility Wind Speed Wind Dir Waves Ship Positions

Carnival Glory

Operator: Carnival Cruise Lines

Last reported at 2018-May-22 17:00 UTC. Time now 2018-May-24 02:34 UTC.
Position N 17°24' W 088°06'.

Type: Passenger vessel. MMSI: 357659000.

Wind from 360 at 15 knots

Barometer 1008.9 mb
Air temperature 30.0 ° C
Visibility: greater than 10.8 NM
Dewpoint 25.8 ° C
Water temperature 28.0 ° C

Date/timePositionNaut miles runAvg speedWind from/ knotsBaromVisibWave heightAir tempDewpointWater temp
2018-May-22 17:00N 17°24' W 088°06'163 9.6 360 / 151008.910.8 30.025.828.0
2018-May-22 00:00N 19°54' W 087°00'2220.1 090 / 301009.410.8 27.022.628.0
2018-May-21 22:54N 20°15' W 087°06'717.6
2018-May-21 22:30N 20°22' W 087°05'815.5
2018-May-21 22:00N 20°29' W 087°01'2 4.8
2018-May-21 21:30N 20°29' W 086°59'0 0.0
2018-May-21 20:57N 20°29' W 086°59'0 0.0
2018-May-21 20:30N 20°29' W 086°59'0 0.0
2018-May-21 20:00N 20°29' W 086°59'0 0.0
2018-May-21 19:30N 20°29' W 086°59'0 0.0
2018-May-21 18:57N 20°29' W 086°59'0 0.0
2018-May-21 18:30N 20°29' W 086°59'0 0.0
2018-May-21 18:00N 20°29' W 086°59'0 0.0
2018-May-21 17:30N 20°29' W 086°59'0 0.0
2018-May-21 17:00N 20°29' W 086°59'0 0.0
2018-May-21 16:30N 20°29' W 086°59'0 0.0
2018-May-21 16:00N 20°29' W 086°59'0 0.0
2018-May-21 15:30N 20°29' W 086°59'0 0.0
2018-May-21 15:00N 20°29' W 086°59'0 0.0
2018-May-21 14:30N 20°29' W 086°59'0 0.0
2018-May-21 14:00N 20°29' W 086°59'0 0.0
2018-May-21 13:30N 20°29' W 086°59'0 0.0
2018-May-21 13:00N 20°29' W 086°59'0 0.0
2018-May-21 12:30N 20°29' W 086°59'0 0.0
2018-May-21 12:00N 20°29' W 086°59'0 0.0
2018-May-21 11:31N 20°29' W 086°59'0 0.8
2018-May-21 11:01N 20°29' W 086°59'3 6.4
2018-May-21 10:31N 20°32' W 086°58'610.7
2018-May-21 09:59N 20°37' W 086°55'10713.3
2018-May-21 02:00N 21°48' W 085°30'7017.5 100 / 251011.910.8 26.021.525.0
2018-May-20 22:00N 22°42' W 084°42'13615.1 080 / 101012.710.8 27.024.128.0
2018-May-20 13:00N 23°30' W 082°24'2424.4 120 / 201014.927.0 28.025.227.0
2018-May-20 12:00N 23°48' W 082°06'14813.1 120 / 151015.110.8 27.024.128.0
2018-May-20 00:44N 25°09' W 079°50'313.6
2018-May-20 00:31N 25°12' W 079°48'713.2
2018-May-20 00:01N 25°18' W 079°46'3196.2
2018-May-20 00:00N 25°18' W 079°42'714.9 140 / 251016.110.8 27.024.128.0
2018-May-19 23:31N 25°24' W 079°46'612.7
2018-May-19 23:01N 25°31' W 079°46'612.6
2018-May-19 22:31N 25°37' W 079°47'713.5
2018-May-19 22:01N 25°41' W 079°53'713.9
2018-May-19 21:30N 25°45' W 079°59'510.6
2018-May-19 21:01N 25°46' W 080°05'5 9.6
2018-May-19 20:30N 25°47' W 080°10'0 0.3
2018-May-19 19:59N 25°47' W 080°10'0 0.0
2018-May-19 19:29N 25°47' W 080°10'0 0.0
2018-May-19 18:59N 25°47' W 080°10'0 0.0
2018-May-19 18:29N 25°47' W 080°10'0 0.0
2018-May-19 17:56N 25°47' W 080°10'0 0.0
2018-May-19 17:29N 25°47' W 080°10'0 0.0
2018-May-19 16:59N 25°47' W 080°10'0 0.0
2018-May-19 16:29N 25°47' W 080°10'0 0.0
2018-May-19 15:59N 25°47' W 080°10'0 0.0
2018-May-19 15:29N 25°47' W 080°10'0 0.0
2018-May-19 14:59N 25°47' W 080°10'0 0.0
2018-May-19 14:29N 25°47' W 080°10'0 0.0
2018-May-19 13:59N 25°47' W 080°10'0 0.0
2018-May-19 13:29N 25°47' W 080°10'0 0.0
2018-May-19 12:56N 25°47' W 080°10'0 0.0
2018-May-19 12:29N 25°47' W 080°10'0 0.0
2018-May-19 11:59N 25°47' W 080°10'0 0.0
2018-May-19 11:29N 25°47' W 080°10'0 0.0
2018-May-19 10:53N 25°47' W 080°10'0 0.0
2018-May-19 10:29N 25°47' W 080°10'0 0.0
2018-May-19 09:59N 25°47' W 080°10'0 0.3
2018-May-19 09:30N 25°47' W 080°10'1 1.4
2018-May-19 09:00N 25°46' W 080°10'5 9.6
2018-May-19 08:30N 25°46' W 080°04'5 9.7
2018-May-19 08:01N 25°46' W 079°59'611.6
2018-May-19 07:30N 25°43' W 079°54'1122.0
2018-May-19 07:00N 25°33' W 079°48'1122.6
2018-May-19 06:30N 25°23' W 079°43'15921.1
2018-May-18 23:00N 22°54' W 078°42'15419.3 170 / 151013.910.8 26.021.528.0
2018-May-18 15:00N 21°36' W 076°18'10921.8 120 / 201014.9 5.4 28.023.725.0
2018-May-18 10:00N 20°54' W 074°30'30312.6 110 / 251013.210.8 26.019.928.0
2018-May-17 10:00N 19°36' W 069°18'114 2.4 120 / 231015.910.8 26.021.528.0
2018-May-15 11:00N 19°24' W 067°18'22118.4 090 / 251016.710.8 25.022.028.0
2018-May-14 23:00N 21°24' W 070°36'180 8.6 090 / 281015.510.8 26.019.928.0
2018-May-14 02:00N 23°18' W 073°06'24417.4 100 / 251016.910.8 25.020.527.0
2018-May-13 12:00N 25°42' W 076°42'14416.1 090 / 201016.910.8 27.024.126.0
2018-May-13 03:03N 26°14' W 079°19'116.8
2018-May-13 03:00N 26°13' W 079°20'816.9
2018-May-13 02:30N 26°10' W 079°28'917.6
2018-May-13 02:00N 26°04' W 079°36'917.5
2018-May-13 01:30N 25°59' W 079°44'917.6
2018-May-13 01:00N 25°55' W 079°52'917.4
2018-May-13 00:30N 25°50' W 080°00'4 7.0
2018-May-13 00:00N 25°48' W 080°03'510.5
2018-May-12 23:30N 25°51' W 079°58'816.7
2018-May-12 23:00N 25°56' W 079°51'816.2
2018-May-12 22:30N 26°02' W 079°45'2 4.0
2018-May-12 22:00N 26°00' W 079°45'918.3
2018-May-12 21:31N 25°54' W 079°53'918.4
2018-May-12 21:01N 25°48' W 080°00'612.2
2018-May-12 20:30N 25°45' W 080°07'3 6.0
2018-May-12 19:58N 25°47' W 080°10'0 0.0
2018-May-12 19:28N 25°47' W 080°10'0 0.0
2018-May-12 18:58N 25°47' W 080°10'0 0.0
2018-May-12 18:28N 25°47' W 080°10'0 0.0
2018-May-12 17:52N 25°47' W 080°10'0 0.0
2018-May-12 17:28N 25°47' W 080°10'  

Dump ship's entire track history